KVCT

Victoria Regional Airport

Victoria, Texas, USA
KVCT 221651Z 2217/2312 17017G27KT P6SM SCT035 OVC045 TEMPO 2217/2220 BKN025 BKN050 FM230200 15012KT P6SM VCSH BKN025 TEMPO 2302/2306 4SM -SHRA OVC015 FM230700 35020G28KT P6SM VCSH OVC040
Issued Valid From Valid To
Jan-22 @ 16:51 UTC
(13 minutes ago)
Jan-22 @ 17:00 UTC
(4 minutes ago)
Jan-23 @ 12:00 UTC
(in 19 hours)
Jan-22 @ 17:00 to Jan-23 @ 02:00
KVCT 221651Z 2217/2312 17017G27KT P6SM SCT035 OVC045
Wind Visibility Clouds
170° at 17 knots
 Gusting to 27 knots
Greater than 6 miles
  • Scattered at 3,500' AGL
  • Overcast at 4,500' AGL
Temporary Jan-22 @ 17:00 to Jan-22 @ 20:00
TEMPO 2217/2220 BKN025 BKN050
Clouds
  • Broken at 2,500' AGL
  • Broken at 5,000' AGL
Temporary Jan-23 @ 02:00 to Jan-23 @ 06:00
TEMPO 2302/2306 4SM -SHRA OVC015
Visibility Clouds Conditions
4 miles
  • Overcast at 1,500' AGL
  • Light Rain
From Jan-23 @ 02:00 to Jan-23 @ 07:00
FM230200 15012KT P6SM VCSH BKN025
Wind Visibility Clouds
150° at 12 knots Greater than 6 miles
  • Broken at 2,500' AGL
From Jan-23 @ 07:00 to Jan-23 @ 12:00
FM230700 35020G28KT P6SM VCSH OVC040
Wind Visibility Clouds
350° at 20 knots
 Gusting to 28 knots
Greater than 6 miles
  • Overcast at 4,000' AGL
KVCT 221651Z 2217/2312 17017G27KT P6SM SCT035 OVC045 TEMPO 2217/2220 BKN025 BKN050 FM230200 15012KT P6SM VCSH BKN025 TEMPO 2302/2306 4SM -SHRA OVC015 FM230700 35020G28KT P6SM VCSH OVC040
Issued Jan-22 @ 16:51 UTC
(13 minutes ago)
Valid From Jan-22 @ 17:00 UTC
(4 minutes ago)
Valid To Jan-23 @ 12:00 UTC
(in 19 hours)
Jan-22 @ 17:00 - Jan-23 @ 02:00
Wind Visibility
170° at 17 knots
 Gusting to 27 knots
Greater than 6 miles
Clouds
  • Scattered at 3,500' AGL
  • Overcast at 4,500' AGL
Temporary Jan-22 @ 17:00 - Jan-22 @ 20:00
Clouds
  • Broken at 2,500' AGL
  • Broken at 5,000' AGL
Temporary Jan-23 @ 02:00 - Jan-23 @ 06:00
Clouds
  • Overcast at 1,500' AGL
Conditions
  • Light Rain
From Jan-23 @ 02:00 - Jan-23 @ 07:00
Wind Visibility
150° at 12 knots Greater than 6 miles
Clouds
  • Broken at 2,500' AGL
From Jan-23 @ 07:00 - Jan-23 @ 12:00
Wind Visibility
350° at 20 knots
 Gusting to 28 knots
Greater than 6 miles
Clouds
  • Overcast at 4,000' AGL